createdAt,value
2023-04-11T00:01:50.161Z,7.07
2023-04-11T00:04:20.622Z,7.10
2023-04-11T00:06:48.818Z,7.10
2023-04-11T00:09:17.171Z,6.82
2023-04-11T00:11:44.800Z,7.00
2023-04-11T00:14:12.714Z,6.88
2023-04-11T00:16:41.638Z,6.93
2023-04-11T00:19:09.662Z,7.47
2023-04-11T00:21:40.203Z,7.70
2023-04-11T00:24:08.532Z,7.32
2023-04-11T00:26:36.131Z,7.15
2023-04-11T00:29:03.444Z,6.63
2023-04-11T00:31:31.391Z,8.02
2023-04-11T00:33:58.839Z,7.93
2023-04-11T00:36:27.131Z,7.22
2023-04-11T00:38:55.332Z,7.95
2023-04-11T00:41:24.350Z,7.93
2023-04-11T00:43:51.533Z,8.30
2023-04-11T00:46:19.220Z,8.57
2023-04-11T00:48:47.111Z,7.95
2023-04-11T00:51:19.425Z,8.55
2023-04-11T00:53:47.091Z,8.20
2023-04-11T00:56:14.761Z,7.82
2023-04-11T00:58:44.352Z,8.43
2023-04-11T01:01:11.949Z,7.00
2023-04-11T01:03:39.778Z,8.10
2023-04-11T01:06:13.183Z,8.57
2023-04-11T01:08:43.423Z,8.77
2023-04-11T01:11:13.739Z,9.10
2023-04-11T01:13:42.342Z,7.75
2023-04-11T01:16:10.346Z,8.07
2023-04-11T01:18:37.887Z,8.70
2023-04-11T01:21:05.675Z,8.07
2023-04-11T01:23:34.401Z,8.60
2023-04-11T01:26:01.907Z,9.15
2023-04-11T01:28:29.176Z,8.10
2023-04-11T01:30:57.889Z,8.75
2023-04-11T01:33:25.387Z,8.20
2023-04-11T01:35:52.980Z,8.25
2023-04-11T01:38:21.325Z,8.63
2023-04-11T01:40:49.067Z,8.32
2023-04-11T01:43:16.624Z,8.20
2023-04-11T01:45:44.371Z,8.75
2023-04-11T01:48:11.776Z,8.60
2023-04-11T01:50:39.451Z,7.82
2023-04-11T01:53:06.678Z,8.65
2023-04-11T01:55:34.220Z,9.05
2023-04-11T01:58:01.410Z,8.18
2023-04-11T02:00:28.949Z,8.13
2023-04-11T02:02:56.424Z,7.95
2023-04-11T02:05:24.133Z,8.90
2023-04-11T02:07:51.320Z,8.30
2023-04-11T02:10:19.469Z,8.38
2023-04-11T02:12:46.662Z,8.63
2023-04-11T02:15:14.208Z,8.13
2023-04-11T02:17:45.609Z,8.52
2023-04-11T02:20:14.648Z,6.67
2023-04-11T02:22:41.993Z,9.18
2023-04-11T02:25:09.816Z,7.88
2023-04-11T02:27:37.126Z,8.98
2023-04-11T02:30:06.244Z,8.75
2023-04-11T02:32:40.815Z,8.73
2023-04-11T02:35:08.820Z,8.95
2023-04-11T02:37:36.682Z,9.10
2023-04-11T02:40:05.065Z,8.38
2023-04-11T02:42:32.441Z,9.00
2023-04-11T02:45:00.391Z,7.97
2023-04-11T02:47:29.408Z,9.18
2023-04-11T02:50:01.675Z,9.00
2023-04-11T02:52:34.701Z,9.68
2023-04-11T02:55:02.276Z,8.90
2023-04-11T02:57:29.523Z,9.73
2023-04-11T02:59:58.018Z,9.55
2023-04-11T03:02:34.165Z,9.68
2023-04-11T03:05:05.334Z,9.85
2023-04-11T03:07:38.583Z,9.15
2023-04-11T03:10:07.351Z,9.38
2023-04-11T03:12:34.657Z,10.50
2023-04-11T03:15:05.437Z,9.88
2023-04-11T03:17:34.143Z,9.65
2023-04-11T03:20:02.464Z,10.85
2023-04-11T03:22:30.937Z,10.15
2023-04-11T03:24:58.889Z,10.40
2023-04-11T03:27:27.191Z,11.82
2023-04-11T03:29:59.414Z,9.27
2023-04-11T03:32:39.099Z,10.02
2023-04-11T03:35:07.226Z,11.15
2023-04-11T03:37:35.416Z,11.15
2023-04-11T03:40:04.394Z,10.10
2023-04-11T03:42:32.021Z,10.38
2023-04-11T03:45:01.483Z,10.98
2023-04-11T03:47:28.841Z,10.73
2023-04-11T03:49:56.594Z,11.10
2023-04-11T03:52:23.875Z,12.07
2023-04-11T03:54:51.833Z,11.80
2023-04-11T03:57:19.493Z,11.52
2023-04-11T03:59:48.024Z,12.25
2023-04-11T04:02:16.170Z,13.05
2023-04-11T04:04:55.218Z,11.00
2023-04-11T04:07:26.602Z,12.13
2023-04-11T04:10:00.520Z,12.57
2023-04-11T04:12:27.949Z,12.15
2023-04-11T04:15:18.576Z,11.45
2023-04-11T04:17:48.837Z,12.23
2023-04-11T04:20:36.431Z,12.35
2023-04-11T04:23:06.144Z,12.43
2023-04-11T04:25:53.053Z,12.10
2023-04-11T04:28:26.179Z,12.85
2023-04-11T04:30:58.146Z,12.18
2023-04-11T04:33:29.034Z,11.90
2023-04-11T04:36:00.262Z,12.40
2023-04-11T04:38:32.122Z,11.68
2023-04-11T04:41:00.983Z,11.70
2023-04-11T04:43:32.380Z,11.88
2023-04-11T04:48:44.922Z,11.93
2023-04-11T04:51:12.469Z,11.60
2023-04-11T04:53:40.560Z,11.63
2023-04-11T04:56:11.911Z,11.75
2023-04-11T04:58:42.132Z,11.38
2023-04-11T05:01:13.190Z,11.73
2023-04-11T05:03:40.691Z,11.57
2023-04-11T05:06:16.988Z,11.10
2023-04-11T05:08:48.673Z,13.73
2023-04-11T05:11:16.551Z,13.82
2023-04-11T05:13:43.817Z,12.73
2023-04-11T05:16:11.678Z,13.25
2023-04-11T05:18:38.951Z,14.45
2023-04-11T05:21:06.765Z,14.77
2023-04-11T05:23:38.134Z,14.63
2023-04-11T05:26:07.888Z,14.68
2023-04-11T05:28:36.402Z,14.93
2023-04-11T05:31:08.947Z,14.25
2023-04-11T05:33:39.435Z,14.82
2023-04-11T05:36:08.439Z,15.40
2023-04-11T05:38:35.753Z,15.70
2023-04-11T05:41:03.255Z,15.07
2023-04-11T05:43:30.523Z,15.95
2023-04-11T05:46:01.968Z,16.55
2023-04-11T05:48:29.605Z,15.65
2023-04-11T05:50:58.384Z,14.95
2023-04-11T05:53:25.638Z,14.38
2023-04-11T05:55:53.192Z,15.05
2023-04-11T05:58:20.382Z,15.48
2023-04-11T06:00:50.001Z,14.82
2023-04-11T06:03:17.673Z,14.63
2023-04-11T06:05:45.492Z,14.65
2023-04-11T06:08:12.798Z,14.40
2023-04-11T06:10:40.292Z,13.95
2023-04-11T06:13:10.384Z,13.02
2023-04-11T06:15:38.353Z,12.93
2023-04-11T06:18:05.666Z,13.27
2023-04-11T06:20:33.218Z,13.50
2023-04-11T06:23:01.504Z,12.93
2023-04-11T06:25:29.246Z,12.18
2023-04-11T06:27:56.558Z,12.20
2023-04-11T06:30:24.348Z,13.63
2023-04-11T06:32:51.702Z,13.13
2023-04-11T06:35:20.563Z,12.02
2023-04-11T06:37:47.848Z,12.15
2023-04-11T06:40:17.295Z,14.02
2023-04-11T06:42:44.623Z,13.50
2023-04-11T06:45:12.372Z,14.38
2023-04-11T06:47:39.843Z,14.02
2023-04-11T06:50:08.045Z,14.82
2023-04-11T06:52:35.309Z,15.82
2023-04-11T06:55:02.917Z,14.70
2023-04-11T06:57:30.318Z,13.85
2023-04-11T06:59:57.772Z,13.80
2023-04-11T07:02:25.900Z,13.43
2023-04-11T07:04:53.644Z,13.85
2023-04-11T07:07:21.415Z,13.65
2023-04-11T07:09:48.986Z,15.30
2023-04-11T07:12:16.235Z,13.93
2023-04-11T07:14:43.729Z,14.18
2023-04-11T07:17:10.955Z,14.20
2023-04-11T07:19:38.412Z,14.68
2023-04-11T07:22:05.874Z,13.20
2023-04-11T07:24:33.635Z,12.32
2023-04-11T07:27:01.940Z,12.95
2023-04-11T07:29:29.674Z,13.13
2023-04-11T07:31:56.978Z,11.60
2023-04-11T07:34:24.661Z,11.60
2023-04-11T07:36:52.081Z,12.13
2023-04-11T07:39:19.673Z,13.00
2023-04-11T07:41:46.977Z,12.10
2023-04-11T07:44:14.472Z,12.50
2023-04-11T07:46:41.741Z,12.75
2023-04-11T07:49:09.249Z,12.48
2023-04-11T07:51:36.581Z,13.00
2023-04-11T07:54:04.154Z,13.10
2023-04-11T07:56:31.368Z,11.75
2023-04-11T07:58:58.935Z,10.70
2023-04-11T08:01:27.101Z,11.18
2023-04-11T08:03:55.833Z,9.55
2023-04-11T08:06:23.585Z,10.52
2023-04-11T08:08:51.498Z,9.73
2023-04-11T08:11:18.867Z,9.32
2023-04-11T08:13:46.391Z,10.82
2023-04-11T08:16:15.691Z,10.15
2023-04-11T08:18:43.492Z,10.27
2023-04-11T08:21:11.655Z,9.52
2023-04-11T08:23:39.891Z,9.18
2023-04-11T08:26:08.223Z,8.93
2023-04-11T08:28:36.341Z,9.05
2023-04-11T08:31:05.480Z,9.63
2023-04-11T08:33:33.491Z,9.55
2023-04-11T08:36:00.760Z,7.95
2023-04-11T08:38:28.450Z,7.85
2023-04-11T08:40:55.971Z,8.88
2023-04-11T08:43:23.963Z,7.35
2023-04-11T08:45:51.270Z,7.45
2023-04-11T08:48:21.957Z,7.80
2023-04-11T08:50:49.132Z,6.47
2023-04-11T08:53:18.961Z,7.03
2023-04-11T08:55:47.323Z,6.45
2023-04-11T08:58:14.903Z,6.63
2023-04-11T09:00:43.019Z,7.57
2023-04-11T09:03:12.286Z,8.27
2023-04-11T09:05:41.888Z,9.95
2023-04-11T09:08:11.270Z,9.55
2023-04-11T09:10:40.021Z,8.20
2023-04-11T09:13:22.268Z,6.45
2023-04-11T09:16:10.562Z,6.85
2023-04-11T09:18:43.623Z,7.43
2023-04-11T09:21:13.497Z,8.13
2023-04-11T09:23:41.398Z,7.60
2023-04-11T09:26:10.451Z,6.53
2023-04-11T09:28:54.785Z,6.93
2023-04-11T09:31:22.383Z,6.57
2023-04-11T09:33:55.316Z,6.25
2023-04-11T09:36:24.978Z,5.88
2023-04-11T09:38:53.934Z,5.05
2023-04-11T09:41:34.773Z,5.75
2023-04-11T09:44:02.723Z,5.45
2023-04-11T09:46:30.083Z,4.82
2023-04-11T09:48:57.682Z,5.32
2023-04-11T09:51:35.893Z,4.28
2023-04-11T09:54:05.884Z,4.70
2023-04-11T09:56:37.200Z,4.93
2023-04-11T09:59:05.333Z,5.18
2023-04-11T10:01:33.464Z,5.25
2023-04-11T10:04:01.589Z,6.00
2023-04-11T10:06:46.933Z,4.45
2023-04-11T10:09:15.627Z,5.00
2023-04-11T10:11:44.116Z,4.95
2023-04-11T10:14:44.332Z,6.20
2023-04-11T10:17:18.941Z,5.60
2023-04-11T10:19:51.640Z,5.75
2023-04-11T10:22:43.214Z,6.20
2023-04-11T10:25:22.001Z,5.72
2023-04-11T10:28:01.137Z,5.25
2023-04-11T10:30:41.164Z,5.82
2023-04-11T10:33:19.702Z,4.93
2023-04-11T10:36:03.078Z,4.95
2023-04-11T10:38:48.780Z,4.32
2023-04-11T10:41:27.680Z,4.63
2023-04-11T10:44:21.286Z,4.50
2023-04-11T10:46:54.358Z,4.50
2023-04-11T10:49:32.841Z,4.63
2023-04-11T10:52:17.643Z,3.92
2023-04-11T10:54:48.737Z,3.88
2023-04-11T10:57:16.485Z,4.97
2023-04-11T10:59:49.660Z,4.82
2023-04-11T11:02:18.277Z,5.22
2023-04-11T11:04:47.156Z,4.90
2023-04-11T11:07:18.040Z,5.13
2023-04-11T11:09:51.304Z,5.18
2023-04-11T11:12:19.051Z,6.35
2023-04-11T11:14:47.454Z,5.25
2023-04-11T11:17:16.880Z,5.35
2023-04-11T11:19:45.522Z,4.35
2023-04-11T11:22:17.609Z,5.20
2023-04-11T11:24:44.936Z,4.60
2023-04-11T11:27:24.192Z,5.25
2023-04-11T11:29:52.982Z,4.70
2023-04-11T11:32:30.061Z,5.53
2023-04-11T11:37:45.321Z,4.72
2023-04-11T11:40:13.248Z,3.80
2023-04-11T11:42:41.329Z,4.55
2023-04-11T11:45:19.989Z,4.45
2023-04-11T11:47:49.731Z,3.97
2023-04-11T11:50:31.483Z,4.53
2023-04-11T11:53:14.216Z,4.15
2023-04-11T11:55:42.266Z,5.32
2023-04-11T11:58:09.811Z,4.32
2023-04-11T12:00:39.393Z,4.57
2023-04-11T12:03:11.901Z,4.13
2023-04-11T12:05:39.463Z,4.10
2023-04-11T12:08:07.844Z,4.90
2023-04-11T12:10:43.287Z,3.97
2023-04-11T12:13:16.609Z,4.68
2023-04-11T12:15:46.505Z,3.50
2023-04-11T12:18:14.359Z,3.67
2023-04-11T12:20:41.853Z,4.07
2023-04-11T12:23:09.438Z,3.85
2023-04-11T12:25:37.013Z,4.00
2023-04-11T12:28:04.506Z,4.50
2023-04-11T12:30:31.751Z,3.88
2023-04-11T12:32:59.396Z,4.32
2023-04-11T12:35:26.660Z,3.58
2023-04-11T12:37:54.170Z,3.30
2023-04-11T12:40:21.535Z,4.05
2023-04-11T12:42:56.990Z,3.95
2023-04-11T12:45:26.255Z,3.63
2023-04-11T12:47:54.236Z,3.95
2023-04-11T12:50:23.868Z,3.78
2023-04-11T12:52:52.538Z,3.58
2023-04-11T12:55:19.961Z,3.03
2023-04-11T12:57:47.552Z,4.50
2023-04-11T13:00:15.426Z,4.13
2023-04-11T13:02:45.299Z,4.28
2023-04-11T13:05:17.105Z,3.42
2023-04-11T13:10:16.825Z,3.72
2023-04-11T13:12:45.557Z,3.85
2023-04-11T13:15:15.040Z,3.95
2023-04-11T13:17:43.380Z,3.90
2023-04-11T13:20:18.177Z,3.20
2023-04-11T13:22:46.240Z,3.53
2023-04-11T13:25:13.461Z,3.90
2023-04-11T13:27:42.205Z,3.50
2023-04-11T13:30:10.722Z,3.58
2023-04-11T13:32:38.420Z,3.85
2023-04-11T13:35:06.683Z,3.40
2023-04-11T13:37:34.198Z,3.63
2023-04-11T13:40:01.608Z,3.38
2023-04-11T13:42:29.232Z,3.80
2023-04-11T13:44:56.417Z,3.95
2023-04-11T13:47:24.024Z,4.22
2023-04-11T13:49:51.276Z,3.63
2023-04-11T13:52:18.922Z,3.50
2023-04-11T13:54:46.247Z,3.35
2023-04-11T13:57:13.786Z,3.38
2023-04-11T13:59:41.160Z,3.65
2023-04-11T14:02:08.812Z,3.75
2023-04-11T14:04:36.283Z,3.22
2023-04-11T14:07:03.959Z,3.60
2023-04-11T14:09:31.255Z,3.33
2023-04-11T14:11:58.797Z,3.30
2023-04-11T14:14:26.370Z,3.47
2023-04-11T14:16:54.018Z,3.35
2023-04-11T14:19:22.775Z,2.83
2023-04-11T14:21:51.698Z,3.75
2023-04-11T14:24:22.449Z,3.53
2023-04-11T14:26:50.350Z,3.22
2023-04-11T14:29:17.816Z,3.00
2023-04-11T14:31:45.482Z,3.03
2023-04-11T14:34:12.809Z,2.95
2023-04-11T14:36:40.447Z,3.40
2023-04-11T14:39:08.301Z,3.63
2023-04-11T14:41:36.070Z,3.33
2023-04-11T14:44:03.351Z,3.22
2023-04-11T14:46:31.148Z,3.33
2023-04-11T14:48:58.417Z,3.35
2023-04-11T14:51:27.752Z,3.50
2023-04-11T14:53:59.843Z,3.20
2023-04-11T14:56:27.509Z,3.03
2023-04-11T14:58:55.056Z,3.13
2023-04-11T15:01:22.809Z,2.78
2023-04-11T15:03:50.201Z,3.53
2023-04-11T15:06:18.248Z,2.70
2023-04-11T15:08:45.847Z,3.00
2023-04-11T15:11:13.496Z,3.10
2023-04-11T15:13:40.924Z,2.67
2023-04-11T15:16:08.731Z,3.08
2023-04-11T15:18:35.938Z,2.65
2023-04-11T15:21:03.598Z,3.03
2023-04-11T15:23:31.164Z,2.60
2023-04-11T15:26:00.463Z,3.08
2023-04-11T15:28:31.986Z,2.47
2023-04-11T15:30:59.950Z,2.75
2023-04-11T15:33:27.817Z,2.72
2023-04-11T15:35:57.802Z,2.13
2023-04-11T15:38:26.840Z,2.60
2023-04-11T15:40:56.324Z,2.72
2023-04-11T15:43:24.246Z,2.50
2023-04-11T15:45:53.704Z,3.15
2023-04-11T15:48:21.040Z,2.55
2023-04-11T15:50:48.907Z,2.70
2023-04-11T15:53:16.289Z,2.83
2023-04-11T15:55:44.195Z,2.67
2023-04-11T15:58:11.635Z,2.97
2023-04-11T16:00:40.216Z,3.08
2023-04-11T16:03:08.901Z,3.78
2023-04-11T16:05:40.266Z,2.92
2023-04-11T16:08:07.965Z,2.70
2023-04-11T16:10:35.587Z,4.00
2023-04-11T16:13:03.225Z,3.05
2023-04-11T16:15:30.841Z,3.40
2023-04-11T16:17:58.118Z,3.60
2023-04-11T16:20:25.788Z,3.38
2023-04-11T16:22:53.057Z,3.35
2023-04-11T16:25:21.575Z,3.67
2023-04-11T16:27:51.167Z,3.17
2023-04-11T16:30:19.139Z,3.00
2023-04-11T16:32:46.547Z,3.58
2023-04-11T16:35:14.162Z,4.10
2023-04-11T16:37:41.904Z,3.90
2023-04-11T16:40:12.665Z,3.42
2023-04-11T16:42:40.481Z,3.50
2023-04-11T16:45:09.870Z,3.72
2023-04-11T16:47:37.817Z,3.88
2023-04-11T16:50:06.212Z,3.80
2023-04-11T16:52:33.918Z,4.00
2023-04-11T16:55:03.007Z,3.72
2023-04-11T16:57:30.326Z,5.03
2023-04-11T16:59:57.850Z,5.45
2023-04-11T17:02:25.449Z,6.32
2023-04-11T17:04:53.180Z,5.53
2023-04-11T17:07:20.686Z,5.50
2023-04-11T17:09:49.312Z,5.25
2023-04-11T17:12:16.589Z,5.07
2023-04-11T17:14:45.736Z,4.35
2023-04-11T17:17:13.116Z,5.68
2023-04-11T17:19:42.228Z,5.00
2023-04-11T17:22:09.473Z,5.25
2023-04-11T17:24:37.138Z,5.60
2023-04-11T17:27:04.532Z,5.20
2023-04-11T17:29:32.421Z,5.40
2023-04-11T17:31:59.764Z,5.22
2023-04-11T17:34:27.343Z,5.20
2023-04-11T17:36:54.880Z,4.35
2023-04-11T17:39:23.026Z,5.03
2023-04-11T17:41:50.402Z,5.20
2023-04-11T17:44:18.168Z,5.18
2023-04-11T17:46:45.705Z,5.28
2023-04-11T17:49:13.342Z,5.57
2023-04-11T17:51:48.802Z,4.28
2023-04-11T17:55:16.575Z,5.10
2023-04-11T17:58:44.338Z,6.18
2023-04-11T18:01:12.200Z,6.85
2023-04-11T18:03:41.314Z,7.32
2023-04-11T18:06:09.405Z,8.30
2023-04-11T18:11:11.074Z,9.93
2023-04-11T18:13:38.388Z,10.57
2023-04-11T18:16:06.365Z,9.90
2023-04-11T18:18:33.757Z,9.85
2023-04-11T18:21:06.649Z,9.23
2023-04-11T18:23:35.725Z,9.60
2023-04-11T18:26:03.401Z,9.43
2023-04-11T18:28:30.825Z,9.25
2023-04-11T18:30:58.433Z,8.88
2023-04-11T18:33:26.232Z,9.05
2023-04-11T18:35:54.054Z,8.30
2023-04-11T18:38:21.392Z,8.63
2023-04-11T18:40:49.484Z,8.43
2023-04-11T18:43:17.625Z,7.50
2023-04-11T18:45:46.975Z,6.82
2023-04-11T18:48:14.581Z,7.30
2023-04-11T18:50:44.664Z,6.82
2023-04-11T18:53:13.532Z,6.80
2023-04-11T18:55:41.983Z,7.60
2023-04-11T18:58:11.033Z,5.85
2023-04-11T19:00:40.136Z,5.15
2023-04-11T19:03:15.419Z,5.03
2023-04-11T19:05:45.471Z,4.32
2023-04-11T19:08:13.203Z,5.32
2023-04-11T19:10:41.218Z,4.53
2023-04-11T19:13:08.957Z,5.00
2023-04-11T19:15:37.107Z,5.25
2023-04-11T19:18:06.553Z,5.15
2023-04-11T19:20:36.592Z,4.32
2023-04-11T19:23:05.974Z,3.88
2023-04-11T19:25:34.801Z,4.15
2023-04-11T19:28:03.124Z,3.80
2023-04-11T19:30:30.952Z,4.03
2023-04-11T19:32:58.891Z,3.67
2023-04-11T19:35:27.383Z,3.75
2023-04-11T19:37:54.719Z,3.92
2023-04-11T19:40:25.839Z,4.30
2023-04-11T19:42:53.258Z,4.07
2023-04-11T19:45:22.203Z,3.80
2023-04-11T19:47:49.552Z,3.60
2023-04-11T19:50:17.806Z,3.92
2023-04-11T19:52:45.383Z,3.70
2023-04-11T19:55:12.993Z,3.83
2023-04-11T19:57:41.221Z,2.90
2023-04-11T20:00:14.467Z,3.10
2023-04-11T20:02:46.776Z,2.20
2023-04-11T20:05:16.506Z,2.50
2023-04-11T20:07:44.119Z,2.67
2023-04-11T20:10:13.071Z,2.60
2023-04-11T20:12:40.887Z,1.77
2023-04-11T20:15:09.404Z,2.08
2023-04-11T20:17:36.872Z,1.98
2023-04-11T20:20:08.976Z,1.92
2023-04-11T20:22:39.371Z,1.90
2023-04-11T20:25:08.025Z,1.75
2023-04-11T20:27:35.501Z,1.60
2023-04-11T20:30:10.384Z,1.65
2023-04-11T20:32:38.487Z,1.42
2023-04-11T20:35:08.753Z,1.77
2023-04-11T20:37:36.572Z,1.60
2023-04-11T20:40:10.257Z,1.77
2023-04-11T20:42:46.036Z,1.85
2023-04-11T20:45:16.308Z,1.10
2023-04-11T20:47:50.267Z,2.10
2023-04-11T20:50:19.378Z,1.38
2023-04-11T20:52:50.533Z,1.27
2023-04-11T20:55:18.428Z,1.30
2023-04-11T20:57:45.641Z,1.52
2023-04-11T21:00:20.096Z,1.60
2023-04-11T21:02:49.948Z,1.48
2023-04-11T21:05:19.710Z,1.60
2023-04-11T21:07:46.997Z,1.00
2023-04-11T21:10:15.765Z,1.25
2023-04-11T21:12:43.342Z,1.35
2023-04-11T21:15:11.889Z,1.23
2023-04-11T21:17:39.826Z,1.20
2023-04-11T21:20:18.102Z,1.20
2023-04-11T21:22:53.129Z,1.15
2023-04-11T21:25:21.473Z,1.05
2023-04-11T21:27:49.896Z,1.25
2023-04-11T21:30:17.705Z,1.50
2023-04-11T21:32:44.998Z,1.70
2023-04-11T21:35:12.757Z,1.38
2023-04-11T21:37:40.008Z,1.50
2023-04-11T21:40:08.168Z,1.17
2023-04-11T21:42:35.361Z,1.13
2023-04-11T21:45:02.989Z,1.10
2023-04-11T21:47:30.377Z,1.70
2023-04-11T21:49:58.002Z,1.48
2023-04-11T21:52:25.460Z,1.30
2023-04-11T21:54:53.097Z,1.60
2023-04-11T21:57:20.353Z,2.15
2023-04-11T21:59:48.027Z,1.58
2023-04-11T22:02:15.395Z,1.63
2023-04-11T22:05:01.230Z,2.13
2023-04-11T22:07:39.056Z,2.08
2023-04-11T22:10:10.009Z,2.53
2023-04-11T22:12:38.072Z,2.03
2023-04-11T22:15:06.660Z,1.75
2023-04-11T22:17:34.770Z,1.70
2023-04-11T22:20:05.024Z,1.98
2023-04-11T22:22:32.430Z,1.98
2023-04-11T22:25:00.166Z,1.95
2023-04-11T22:27:27.561Z,2.83
2023-04-11T22:29:57.911Z,2.38
2023-04-11T22:32:25.236Z,2.83
2023-04-11T22:34:52.786Z,2.88
2023-04-11T22:37:20.066Z,2.67
2023-04-11T22:39:47.569Z,2.83
2023-04-11T22:42:14.764Z,2.88
2023-04-11T22:44:42.342Z,3.05
2023-04-11T22:47:13.499Z,2.67
2023-04-11T22:49:41.161Z,3.33
2023-04-11T22:52:10.762Z,3.88
2023-04-11T22:54:38.619Z,4.13
2023-04-11T22:57:06.452Z,3.97
2023-04-11T22:59:33.954Z,5.00
2023-04-11T23:02:01.250Z,4.72
2023-04-11T23:04:31.129Z,4.22
2023-04-11T23:06:58.446Z,4.45
2023-04-11T23:09:26.477Z,4.22
2023-04-11T23:11:53.700Z,4.05
2023-04-11T23:14:22.414Z,4.20
2023-04-11T23:16:49.923Z,3.63
2023-04-11T23:19:18.951Z,3.72
2023-04-11T23:21:46.288Z,3.58
2023-04-11T23:24:14.116Z,3.50
2023-04-11T23:26:42.386Z,4.05
2023-04-11T23:29:09.906Z,3.53
2023-04-11T23:31:37.101Z,4.18
2023-04-11T23:34:04.665Z,4.03
2023-04-11T23:36:32.858Z,3.92
2023-04-11T23:39:02.251Z,3.70
2023-04-11T23:41:30.368Z,4.40
2023-04-11T23:43:58.241Z,4.22
2023-04-11T23:46:26.370Z,3.28
2023-04-11T23:48:54.127Z,3.92
2023-04-11T23:51:21.625Z,3.45
2023-04-11T23:53:49.880Z,3.78
2023-04-11T23:56:17.458Z,3.90
2023-04-11T23:58:45.202Z,3.97
